createdAt,value
2018-10-09T08:36:44.625Z,56
2018-10-09T08:39:44.602Z,57
2018-10-09T08:42:44.615Z,53
2018-10-09T08:45:44.810Z,50
2018-10-09T08:48:44.639Z,49
2018-10-09T08:51:44.675Z,47
2018-10-09T08:54:44.646Z,47
2018-10-09T08:57:44.694Z,47
2018-10-09T09:00:44.708Z,45
2018-10-09T09:03:44.697Z,44
2018-10-09T09:06:44.730Z,42
2018-10-09T09:09:44.865Z,41
2018-10-09T09:12:44.752Z,40
2018-10-09T09:15:44.776Z,39
2018-10-09T09:18:44.807Z,37
2018-10-09T09:21:44.825Z,37
2018-10-09T09:24:44.819Z,36
2018-10-09T09:27:44.887Z,35
2018-10-09T09:30:44.874Z,34
2018-10-09T09:33:45.049Z,32
2018-10-09T09:36:45.353Z,31
2018-10-09T09:39:44.931Z,31
2018-10-09T09:42:44.978Z,33
2018-10-09T09:45:45.146Z,31
2018-10-09T09:48:44.995Z,34
2018-10-09T09:51:45.020Z,31
2018-10-09T09:54:45.071Z,30
2018-10-09T10:00:45.088Z,30
2018-10-09T10:03:45.772Z,28
2018-10-09T10:06:45.546Z,28
2018-10-09T10:09:45.167Z,28
2018-10-09T10:12:45.187Z,27
2018-10-09T10:15:45.259Z,29
2018-10-09T10:18:45.248Z,28
2018-10-09T10:21:45.365Z,27
2018-10-09T10:24:45.284Z,26
2018-10-09T10:27:45.307Z,25
2018-10-09T10:30:45.328Z,24
2018-10-09T10:33:45.349Z,27
2018-10-09T10:36:45.418Z,29
2018-10-09T10:39:45.424Z,27
2018-10-09T10:42:45.427Z,26
2018-10-09T10:45:45.582Z,24
2018-10-09T10:48:45.501Z,24
2018-10-09T10:51:45.528Z,26
2018-10-09T10:54:45.568Z,26
2018-10-09T10:57:45.583Z,25
2018-10-09T11:00:45.707Z,27
2018-10-09T11:03:45.625Z,27
2018-10-09T11:06:45.650Z,31
2018-10-09T11:09:45.817Z,31
2018-10-09T11:12:45.705Z,31
2018-10-09T11:15:46.088Z,31
2018-10-09T11:18:45.729Z,32
2018-10-09T11:21:45.769Z,33
2018-10-09T11:24:45.816Z,32
2018-10-09T11:27:45.805Z,33
2018-10-09T11:30:45.927Z,35
2018-10-09T11:33:45.846Z,36
2018-10-09T11:36:45.920Z,31
2018-10-09T11:39:45.921Z,27
2018-10-09T11:42:46.394Z,27
2018-10-09T11:45:45.940Z,30
2018-10-09T11:48:45.964Z,30
2018-10-09T11:51:46.103Z,28
2018-10-09T11:54:46.059Z,29
2018-10-09T11:57:46.033Z,26
2018-10-09T12:00:46.186Z,27
2018-10-09T12:03:46.118Z,25
2018-10-09T12:06:46.238Z,23
2018-10-09T12:09:46.196Z,23
2018-10-09T12:15:46.301Z,24
2018-10-09T12:18:46.389Z,23
2018-10-09T12:21:46.717Z,25
2018-10-09T12:24:46.340Z,26
2018-10-09T12:27:46.360Z,28
2018-10-09T12:30:46.487Z,30
2018-10-09T12:33:46.392Z,29
2018-10-09T12:36:46.577Z,30
2018-10-09T12:39:46.470Z,30
2018-10-09T12:42:46.464Z,30
2018-10-09T12:45:46.497Z,29
2018-10-09T12:48:46.527Z,29
2018-10-09T12:51:46.540Z,30
2018-10-09T12:54:46.572Z,30
2018-10-09T12:57:46.601Z,30
2018-10-09T13:00:46.611Z,30
2018-10-09T13:03:46.641Z,29
2018-10-09T13:06:46.670Z,28
2018-10-09T13:09:46.721Z,27
2018-10-09T13:12:46.721Z,28
2018-10-09T13:15:46.756Z,29
2018-10-09T13:18:46.777Z,31
2018-10-09T13:21:47.065Z,29
2018-10-09T13:24:46.837Z,28
2018-10-09T13:30:46.901Z,34
2018-10-09T13:33:46.910Z,36
2018-10-09T13:36:46.926Z,37
2018-10-09T13:39:47.065Z,36
2018-10-09T13:42:46.957Z,32
2018-10-09T13:45:47.009Z,31
2018-10-09T13:48:47.009Z,33
2018-10-09T13:51:47.039Z,29
2018-10-09T13:54:47.068Z,29
2018-10-09T13:57:47.096Z,28
2018-10-09T14:00:47.118Z,29
2018-10-09T14:03:47.144Z,28
2018-10-09T14:06:47.165Z,29
2018-10-09T14:09:47.205Z,32
2018-10-09T14:12:47.322Z,37
2018-10-09T14:15:47.251Z,38
2018-10-09T14:18:47.272Z,41
2018-10-09T14:21:47.270Z,42
2018-10-09T14:24:47.289Z,42
2018-10-09T14:27:47.277Z,43
2018-10-09T14:30:47.416Z,44
2018-10-09T14:33:47.313Z,45
2018-10-09T14:36:47.354Z,46
2018-10-09T14:39:47.387Z,47
2018-10-09T14:42:47.368Z,48
2018-10-09T14:45:47.384Z,48
2018-10-09T14:48:47.399Z,49
2018-10-09T14:51:47.420Z,50
2018-10-09T14:54:47.556Z,51
2018-10-09T14:57:47.543Z,52
2018-10-09T15:00:47.512Z,53
2018-10-09T15:03:47.474Z,53
2018-10-09T15:06:47.502Z,54
2018-10-09T15:15:47.667Z,55
2018-10-09T15:18:47.479Z,56
2018-10-09T15:21:47.596Z,57
2018-10-09T15:24:47.973Z,57
2018-10-09T15:30:47.641Z,58
2018-10-09T15:36:47.548Z,59
2018-10-09T16:03:47.660Z,60
2018-10-09T16:06:47.650Z,61
2018-10-09T16:09:47.647Z,61
2018-10-09T16:24:47.791Z,64
2018-10-09T16:27:47.701Z,65
2018-10-09T16:30:47.685Z,66
2018-10-09T16:33:47.811Z,66
2018-10-09T16:36:47.692Z,67
2018-10-09T16:39:47.731Z,67
2018-10-09T16:42:47.721Z,68
2018-10-09T16:45:47.736Z,69
2018-10-09T16:48:47.718Z,70
2018-10-09T16:51:47.708Z,71
2018-10-09T16:54:47.953Z,71
2018-10-09T16:57:47.729Z,73
2018-10-09T17:00:47.747Z,73
2018-10-09T17:03:47.752Z,74
2018-10-09T17:06:47.928Z,75
2018-10-09T17:09:47.800Z,75
2018-10-09T17:12:47.764Z,76
2018-10-09T17:15:48.003Z,76
2018-10-09T17:18:47.751Z,77
2018-10-09T17:21:47.757Z,77
2018-10-09T17:24:47.786Z,78
2018-10-09T17:27:47.857Z,78
2018-10-09T17:30:47.773Z,78
2018-10-09T17:33:47.763Z,79
